Record high temperature 42.2°C Record low temperature -14.6°C Record high gust 68.5 km/h Record high average 47.2 km/h Record daily rain 55.3 mm Record low windchill -17.5°C Record high barometer 1045.0 hPa Record low barometer 970.0 hPa
Daily high pressure 1000.0 hPa Daily low pressure 996.0 hPa Daily low windchill 1.2°C Daily high heat index 9.3°C Daily high gust speed 20.9 kmh S Daily high average speed 14.1 kmh SSE

This page is updated from recent data collected by a WMR200 weather station Use the Reload or Refresh facility on your browser to retrieve the latest data.

Status report of weather station: Bienvenue sur la Station Météo de Godarville



Weather report/warning/Metars

Alexandroupoli Airport , Greece (LGAL) 40-51N 025-55E 3M
Nov 13, 2019 - 09:20 AM EST / 2019.11.13 1420 UTC
Wind: from the WSW (240 degrees) at 6 MPH (5 KT):0
Visibility: greater than 7 mile(s):0
Sky conditions: mostly cloudy
Temperature: 64 F (18 C)
Dew Point: 57 F (14 C)
Relative Humidity: 77%
Pressure (altimeter): 29.91 in. Hg (1013 hPa)
ob: LGAL 131420Z 24005KT 9999 FEW020 BKN030 18/14 Q1013
cycle: 14

Charleroi / Gosselies, Belgium (EBCI) 50-28N 004-27E 192M
Nov 13, 2019 - 09:20 AM EST / 2019.11.13 1420 UTC
Wind: from the SSW (200 degrees) at 10 MPH (9 KT):0
Visibility: greater than 7 mile(s):0
Sky conditions: mostly cloudy
Temperature: 44 F (7 C)
Dew Point: 41 F (5 C)
Relative Humidity: 87%
Pressure (altimeter): 29.56 in. Hg (1001 hPa)
ob: EBCI 131420Z 20009KT 9999 FEW014 BKN044 07/05 Q1001 NOSIG
cycle: 14

Bruxelles National, Belgium (EBBR) 50-54N 004-32E 58M
Nov 13, 2019 - 09:20 AM EST / 2019.11.13 1420 UTC
Wind: from the SSW (210 degrees) at 8 MPH (7 KT):0
Visibility: greater than 7 mile(s):0
Sky conditions: mostly clear
Temperature: 48 F (9 C)
Dew Point: 41 F (5 C)
Relative Humidity: 75%
Pressure (altimeter): 29.56 in. Hg (1001 hPa)
ob: EBBR 131420Z 21007KT 9999 FEW021 09/05 Q1001 NOSIG
cycle: 14

Koksijde, Belgium (EBFN) 51-05N 002-39E 9M
Nov 13, 2019 - 09:25 AM EST / 2019.11.13 1425 UTC
Wind: from the SSW (210 degrees) at 6 MPH (5 KT):0
Visibility: greater than 7 mile(s):0
Sky conditions: partly cloudy
Temperature: 48 F (9 C)
Dew Point: 41 F (5 C)
Relative Humidity: 75%
Pressure (altimeter): 29.53 in. Hg (1000 hPa)
ob: EBFN 131425Z 21005KT 9999 FEW022 SCT180 09/05 Q1000 BLU BLU TEMPO WHT
cycle: 14

Poznan, Poland (EPPO) 52-25N 016-50E 92M
Nov 13, 2019 - 09:30 AM EST / 2019.11.13 1430 UTC
Wind: from the NW (320 degrees) at 7 MPH (6 KT):0
Visibility: greater than 7 mile(s):0
Sky conditions: overcast
Temperature: 39 F (4 C)
Dew Point: 37 F (3 C)
Relative Humidity: 93%
Pressure (altimeter): 29.62 in. Hg (1003 hPa)
ob: EPPO 131430Z 32006KT 9999 FEW007 SCT012 OVC046 04/03 Q1003 
cycle: 14



Coucher du Soleil:
17:01:38

Lever de Lune:
17:27:26 12/11/19

Coucher de Lune:
07:15:55 12/11/19

Premier Quartier 4 novembre 2019
Pleine Lune 12 novembre 2019
Dernier Quartier 19 novembre 2019
Nouvelle Lune 26 novembre 2019
Âge de lune : 15 jours,3 heures,28 minutes,100%
Les heures du jour possible étaient aujourd’hui 09:10



The data is logged at two minute intervals, but there is data recorded every minute.

Use the RELOAD facility on your browser to retrieve the latest data.

Click here for a daily update of the averages/extremes to date for the month
Created by "Weather Display" software version 10.37P at this start time/date 15:11:00 19/10/2019